createdAt,value
2018-11-11T00:01:36.305Z,95275.00
2018-11-11T00:04:07.532Z,95278.00
2018-11-11T00:06:38.518Z,95285.00
2018-11-11T00:09:10.617Z,95283.00
2018-11-11T00:11:41.559Z,95281.00
2018-11-11T00:14:12.927Z,95283.00
2018-11-11T00:16:44.189Z,95289.00
2018-11-11T00:19:15.280Z,95290.00
2018-11-11T00:21:46.228Z,95288.00
2018-11-11T00:24:17.080Z,95297.00
2018-11-11T00:26:47.981Z,95295.00
2018-11-11T00:29:18.964Z,95291.00
2018-11-11T00:31:49.873Z,95291.00
2018-11-11T00:34:20.977Z,95296.00
2018-11-11T00:36:51.904Z,95298.00
2018-11-11T00:39:22.884Z,95301.00
2018-11-11T00:41:53.881Z,95298.00
2018-11-11T00:44:24.897Z,95296.00
2018-11-11T00:46:55.792Z,95297.00
2018-11-11T00:49:26.943Z,95293.00
2018-11-11T00:51:58.117Z,95290.00
2018-11-11T00:54:29.394Z,95290.00
2018-11-11T00:57:00.203Z,95297.00
2018-11-11T00:59:31.057Z,95291.00
2018-11-11T01:02:02.054Z,95294.00
2018-11-11T01:04:33.540Z,95293.00
2018-11-11T01:07:04.567Z,95294.00
2018-11-11T01:09:35.557Z,95294.00
2018-11-11T01:12:06.665Z,95289.00
2018-11-11T01:14:37.977Z,95292.00
2018-11-11T01:17:09.573Z,95289.00
2018-11-11T01:19:40.593Z,95294.00
2018-11-11T01:22:11.643Z,95293.00
2018-11-11T01:24:42.696Z,95300.00
2018-11-11T01:27:13.733Z,95297.00
2018-11-11T01:29:44.703Z,95295.00
2018-11-11T01:32:15.743Z,95295.00
2018-11-11T01:34:46.692Z,95298.00
2018-11-11T01:37:17.711Z,95292.00
2018-11-11T01:39:48.556Z,95297.00
2018-11-11T01:42:19.614Z,95299.00
2018-11-11T01:44:50.446Z,95300.00
2018-11-11T01:47:21.429Z,95301.00
2018-11-11T01:49:52.374Z,95296.00
2018-11-11T01:52:23.340Z,95298.00
2018-11-11T01:54:54.214Z,95304.00
2018-11-11T01:57:25.267Z,95307.00
2018-11-11T01:59:56.142Z,95307.00
2018-11-11T02:02:27.076Z,95307.00
2018-11-11T02:04:58.082Z,95310.00
2018-11-11T02:07:29.173Z,95310.00
2018-11-11T02:10:00.087Z,95311.00
2018-11-11T02:12:31.221Z,95310.00
2018-11-11T02:15:02.200Z,95300.00
2018-11-11T02:17:33.227Z,95310.00
2018-11-11T02:20:04.464Z,95315.00
2018-11-11T02:22:35.306Z,95315.00
2018-11-11T02:25:07.003Z,95313.00
2018-11-11T02:27:37.885Z,95318.00
2018-11-11T02:30:13.020Z,95316.00
2018-11-11T02:32:44.486Z,95323.00
2018-11-11T02:35:15.264Z,95327.00
2018-11-11T02:37:46.214Z,95323.00
2018-11-11T02:40:18.262Z,95331.00
2018-11-11T02:42:49.900Z,95330.00
2018-11-11T02:45:21.257Z,95328.00
2018-11-11T02:47:52.229Z,95325.00
2018-11-11T02:50:23.224Z,95327.00
2018-11-11T02:52:54.323Z,95326.00
2018-11-11T02:55:25.166Z,95322.00
2018-11-11T02:57:56.814Z,95322.00
2018-11-11T03:00:27.752Z,95325.00
2018-11-11T03:02:58.782Z,95320.00
2018-11-11T03:05:29.678Z,95322.00
2018-11-11T03:08:00.731Z,95326.00
2018-11-11T03:10:32.117Z,95324.00
2018-11-11T03:13:03.125Z,95320.00
2018-11-11T03:15:34.269Z,95324.00
2018-11-11T03:18:05.338Z,95319.00
2018-11-11T03:20:36.201Z,95326.00
2018-11-11T03:23:07.387Z,95324.00
2018-11-11T03:25:38.325Z,95327.00
2018-11-11T03:28:09.453Z,95326.00
2018-11-11T03:30:40.410Z,95333.00
2018-11-11T03:33:11.410Z,95332.00
2018-11-11T03:35:42.340Z,95339.00
2018-11-11T03:38:13.726Z,95335.00
2018-11-11T03:40:44.857Z,95334.00
2018-11-11T03:43:15.911Z,95333.00
2018-11-11T03:45:47.439Z,95335.00
2018-11-11T03:48:18.465Z,95339.00
2018-11-11T03:50:49.407Z,95338.00
2018-11-11T03:53:20.239Z,95341.00
2018-11-11T03:55:52.365Z,95339.00
2018-11-11T03:58:23.336Z,95347.00
2018-11-11T04:00:54.400Z,95348.00
2018-11-11T04:03:25.296Z,95346.00
2018-11-11T04:05:56.466Z,95344.00
2018-11-11T04:08:27.822Z,95347.00
2018-11-11T04:10:58.962Z,95348.00
2018-11-11T04:13:29.963Z,95346.00
2018-11-11T04:19:31.217Z,95348.00
2018-11-11T04:22:06.130Z,95343.00
2018-11-11T04:24:37.003Z,95344.00
2018-11-11T04:27:07.839Z,95348.00
2018-11-11T04:29:38.933Z,95350.00
2018-11-11T04:32:10.286Z,95356.00
2018-11-11T04:34:42.210Z,95355.00
2018-11-11T04:37:13.456Z,95357.00
2018-11-11T04:39:44.670Z,95358.00
2018-11-11T04:42:15.893Z,95359.00
2018-11-11T04:44:46.873Z,95366.00
2018-11-11T04:47:17.848Z,95367.00
2018-11-11T04:49:49.347Z,95369.00
2018-11-11T04:52:20.405Z,95364.00
2018-11-11T04:54:51.273Z,95362.00
2018-11-11T04:57:22.169Z,95362.00
2018-11-11T04:59:53.018Z,95366.00
2018-11-11T05:02:23.890Z,95372.00
2018-11-11T05:04:54.737Z,95367.00
2018-11-11T05:07:25.725Z,95372.00
2018-11-11T05:09:56.685Z,95378.00
2018-11-11T05:12:27.640Z,95377.00
2018-11-11T05:14:58.471Z,95382.00
2018-11-11T05:17:29.634Z,95387.00
2018-11-11T05:20:00.599Z,95386.00
2018-11-11T05:22:31.464Z,95384.00
2018-11-11T05:25:02.212Z,95389.00
2018-11-11T05:27:33.306Z,95386.00
2018-11-11T05:30:04.622Z,95398.00
2018-11-11T05:32:35.539Z,95393.00
2018-11-11T05:35:07.489Z,95399.00
2018-11-11T05:37:38.470Z,95394.00
2018-11-11T05:40:10.766Z,95395.00
2018-11-11T05:42:42.396Z,95395.00
2018-11-11T05:45:14.570Z,95394.00
2018-11-11T05:47:45.610Z,95396.00
2018-11-11T05:50:17.558Z,95405.00
2018-11-11T05:52:48.379Z,95403.00
2018-11-11T05:55:20.337Z,95409.00
2018-11-11T05:57:51.457Z,95410.00
2018-11-11T06:00:22.501Z,95413.00
2018-11-11T06:02:53.435Z,95413.00
2018-11-11T06:05:24.558Z,95415.00
2018-11-11T06:07:55.389Z,95417.00
2018-11-11T06:10:26.354Z,95420.00
2018-11-11T06:12:57.480Z,95425.00
2018-11-11T06:15:28.546Z,95425.00
2018-11-11T06:17:59.458Z,95430.00
2018-11-11T06:23:38.134Z,95440.00
2018-11-11T06:26:09.877Z,95440.00
2018-11-11T06:28:49.985Z,95436.00
2018-11-11T06:31:23.007Z,95438.00
2018-11-11T06:33:54.949Z,95437.00
2018-11-11T06:36:25.939Z,95445.00
2018-11-11T06:42:00.008Z,95443.00
2018-11-11T06:44:30.979Z,95444.00
2018-11-11T06:47:01.932Z,95445.00
2018-11-11T06:49:33.220Z,95446.00
2018-11-11T06:52:04.136Z,95452.00
2018-11-11T06:54:34.970Z,95450.00
2018-11-11T06:57:06.119Z,95452.00
2018-11-11T06:59:37.061Z,95455.00
2018-11-11T07:02:08.072Z,95459.00
2018-11-11T07:04:39.401Z,95454.00
2018-11-11T07:07:10.532Z,95451.00
2018-11-11T07:09:41.534Z,95451.00
2018-11-11T07:12:12.615Z,95453.00
2018-11-11T07:14:43.697Z,95454.00
2018-11-11T07:17:14.566Z,95450.00
2018-11-11T07:19:45.386Z,95455.00
2018-11-11T07:22:16.602Z,95459.00
2018-11-11T07:24:48.074Z,95460.00
2018-11-11T07:27:19.379Z,95463.00
2018-11-11T07:29:50.719Z,95463.00
2018-11-11T07:32:21.645Z,95458.00
2018-11-11T07:34:52.770Z,95460.00
2018-11-11T07:37:23.603Z,95463.00
2018-11-11T07:39:54.443Z,95465.00
2018-11-11T07:42:25.736Z,95460.00
2018-11-11T07:44:56.791Z,95457.00
2018-11-11T07:47:27.981Z,95455.00
2018-11-11T07:49:59.100Z,95457.00
2018-11-11T07:52:29.926Z,95459.00
2018-11-11T07:55:00.977Z,95457.00
2018-11-11T07:57:31.930Z,95458.00
2018-11-11T08:00:03.150Z,95457.00
2018-11-11T08:02:34.255Z,95458.00
2018-11-11T08:05:06.816Z,95462.00
2018-11-11T08:07:38.084Z,95459.00
2018-11-11T08:11:23.207Z,95458.00
2018-11-11T08:13:54.253Z,95462.00
2018-11-11T08:16:25.486Z,95466.00
2018-11-11T08:18:56.503Z,95463.00
2018-11-11T08:21:29.686Z,95463.00
2018-11-11T08:24:00.706Z,95466.00
2018-11-11T08:26:32.078Z,95464.00
2018-11-11T08:29:03.152Z,95458.00
2018-11-11T08:31:34.445Z,95458.00
2018-11-11T08:34:05.477Z,95459.00
2018-11-11T08:36:36.507Z,95462.00
2018-11-11T08:39:11.543Z,95457.00
2018-11-11T08:41:44.268Z,95455.00
2018-11-11T08:44:15.548Z,95457.00
2018-11-11T08:46:46.891Z,95456.00
2018-11-11T08:49:17.795Z,95455.00
2018-11-11T08:51:48.789Z,95458.00
2018-11-11T08:54:19.693Z,95464.00
2018-11-11T08:56:50.854Z,95463.00
2018-11-11T08:59:22.117Z,95463.00
2018-11-11T09:01:53.230Z,95463.00
2018-11-11T09:04:24.488Z,95465.00
2018-11-11T09:06:55.414Z,95464.00
2018-11-11T09:09:26.775Z,95470.00
2018-11-11T09:11:57.927Z,95465.00
2018-11-11T09:14:29.092Z,95454.00
2018-11-11T09:17:00.096Z,95453.00
2018-11-11T09:19:31.092Z,95451.00
2018-11-11T09:22:02.215Z,95453.00
2018-11-11T09:24:33.293Z,95449.00
2018-11-11T09:27:04.679Z,95442.00
2018-11-11T09:29:36.487Z,95450.00
2018-11-11T09:32:07.763Z,95449.00
2018-11-11T09:34:39.106Z,95455.00
2018-11-11T09:37:10.266Z,95449.00
2018-11-11T09:39:42.381Z,95454.00
2018-11-11T09:42:13.618Z,95446.00
2018-11-11T09:44:44.714Z,95444.00
2018-11-11T09:47:15.722Z,95441.00
2018-11-11T09:49:46.866Z,95445.00
2018-11-11T09:52:18.017Z,95446.00
2018-11-11T09:54:49.049Z,95443.00
2018-11-11T09:57:45.449Z,95440.00
2018-11-11T10:00:20.522Z,95435.00
2018-11-11T10:02:55.609Z,95437.00
2018-11-11T10:05:39.307Z,95432.00
2018-11-11T10:08:14.484Z,95422.00
2018-11-11T10:10:53.218Z,95429.00
2018-11-11T10:15:35.217Z,95422.00
2018-11-11T10:18:41.756Z,95421.00
2018-11-11T10:21:18.954Z,95425.00
2018-11-11T10:25:58.096Z,95420.00
2018-11-11T10:28:33.141Z,95421.00
2018-11-11T10:31:09.150Z,95411.00
2018-11-11T10:33:45.074Z,95409.00
2018-11-11T10:36:22.167Z,95413.00
2018-11-11T10:39:10.096Z,95408.00
2018-11-11T10:41:47.360Z,95410.00
2018-11-11T10:44:25.747Z,95406.00
2018-11-11T10:47:03.498Z,95403.00
2018-11-11T10:49:40.260Z,95396.00
2018-11-11T10:52:11.560Z,95391.00
2018-11-11T10:54:42.773Z,95390.00
2018-11-11T10:57:13.985Z,95390.00
2018-11-11T10:59:45.231Z,95387.00
2018-11-11T11:02:18.859Z,95388.00
2018-11-11T11:04:55.160Z,95387.00
2018-11-11T11:07:26.460Z,95386.00
2018-11-11T11:09:57.612Z,95381.00
2018-11-11T11:12:28.652Z,95386.00
2018-11-11T11:14:59.838Z,95385.00
2018-11-11T11:17:30.890Z,95378.00
2018-11-11T11:20:02.783Z,95379.00
2018-11-11T11:22:33.974Z,95382.00
2018-11-11T11:25:05.574Z,95379.00
2018-11-11T11:27:36.633Z,95380.00
2018-11-11T11:30:10.688Z,95380.00
2018-11-11T11:32:41.696Z,95374.00
2018-11-11T11:35:12.936Z,95373.00
2018-11-11T11:37:44.029Z,95372.00
2018-11-11T11:40:15.087Z,95369.00
2018-11-11T11:42:46.124Z,95371.00
2018-11-11T11:45:17.325Z,95372.00
2018-11-11T11:47:48.694Z,95366.00
2018-11-11T11:50:19.808Z,95370.00
2018-11-11T11:52:50.895Z,95366.00
2018-11-11T11:55:21.867Z,95362.00
2018-11-11T11:58:16.745Z,95357.00
2018-11-11T12:00:47.881Z,95355.00
2018-11-11T12:03:19.121Z,95354.00
2018-11-11T12:05:50.098Z,95356.00
2018-11-11T12:08:21.367Z,95354.00
2018-11-11T12:10:52.441Z,95355.00
2018-11-11T12:13:23.844Z,95351.00
2018-11-11T12:15:54.795Z,95353.00
2018-11-11T12:18:25.891Z,95356.00
2018-11-11T12:20:57.449Z,95354.00
2018-11-11T12:23:28.543Z,95351.00
2018-11-11T12:25:59.726Z,95354.00
2018-11-11T12:28:30.805Z,95359.00
2018-11-11T12:31:01.783Z,95359.00
2018-11-11T12:33:33.046Z,95359.00
2018-11-11T12:36:04.160Z,95354.00
2018-11-11T12:38:35.431Z,95352.00
2018-11-11T12:41:07.003Z,95353.00
2018-11-11T12:43:38.168Z,95357.00
2018-11-11T12:46:09.351Z,95357.00
2018-11-11T12:48:40.556Z,95355.00
2018-11-11T12:51:11.674Z,95358.00
2018-11-11T12:53:42.760Z,95363.00
2018-11-11T12:56:13.726Z,95357.00
2018-11-11T12:58:44.961Z,95356.00
2018-11-11T13:01:15.956Z,95352.00
2018-11-11T13:03:47.116Z,95351.00
2018-11-11T13:06:17.999Z,95352.00
2018-11-11T13:08:49.376Z,95353.00
2018-11-11T13:11:20.906Z,95354.00
2018-11-11T13:13:52.205Z,95351.00
2018-11-11T13:16:23.220Z,95358.00
2018-11-11T13:18:54.282Z,95355.00
2018-11-11T13:21:25.338Z,95358.00
2018-11-11T13:23:56.648Z,95353.00
2018-11-11T13:26:27.819Z,95355.00
2018-11-11T13:28:58.885Z,95360.00
2018-11-11T13:31:29.913Z,95355.00
2018-11-11T13:34:00.920Z,95358.00
2018-11-11T13:36:32.007Z,95356.00
2018-11-11T13:39:03.161Z,95361.00
2018-11-11T13:41:34.129Z,95363.00
2018-11-11T13:44:05.671Z,95364.00
2018-11-11T13:46:37.152Z,95365.00
2018-11-11T13:49:08.541Z,95367.00
2018-11-11T13:51:39.797Z,95365.00
2018-11-11T13:54:10.931Z,95362.00
2018-11-11T13:56:42.281Z,95363.00
2018-11-11T13:59:13.373Z,95363.00
2018-11-11T14:01:44.504Z,95369.00
2018-11-11T14:04:15.520Z,95373.00
2018-11-11T14:06:47.068Z,95375.00
2018-11-11T14:09:18.004Z,95376.00
2018-11-11T14:11:49.088Z,95371.00
2018-11-11T14:14:20.017Z,95377.00
2018-11-11T14:16:51.494Z,95374.00
2018-11-11T14:19:22.705Z,95370.00
2018-11-11T14:21:53.544Z,95378.00
2018-11-11T14:24:24.709Z,95381.00
2018-11-11T14:26:55.817Z,95385.00
2018-11-11T14:29:26.894Z,95386.00
2018-11-11T14:31:58.014Z,95386.00
2018-11-11T14:34:29.179Z,95379.00
2018-11-11T14:37:00.434Z,95382.00
2018-11-11T14:39:31.642Z,95384.00
2018-11-11T14:42:02.650Z,95388.00
2018-11-11T14:44:33.804Z,95394.00
2018-11-11T14:47:05.049Z,95392.00
2018-11-11T14:49:36.102Z,95394.00
2018-11-11T14:52:07.614Z,95395.00
2018-11-11T14:54:38.479Z,95393.00
2018-11-11T14:57:09.379Z,95393.00
2018-11-11T14:59:40.535Z,95395.00
2018-11-11T15:02:11.618Z,95406.00
2018-11-11T15:04:42.695Z,95408.00
2018-11-11T15:07:13.952Z,95410.00
2018-11-11T15:09:45.058Z,95408.00
2018-11-11T15:12:16.155Z,95413.00
2018-11-11T15:14:47.166Z,95415.00
2018-11-11T15:17:18.258Z,95416.00
2018-11-11T15:19:49.357Z,95421.00
2018-11-11T15:22:20.539Z,95416.00
2018-11-11T15:24:51.603Z,95421.00
2018-11-11T15:27:22.926Z,95422.00
2018-11-11T15:29:54.672Z,95423.00
2018-11-11T15:32:25.700Z,95424.00
2018-11-11T15:34:56.958Z,95431.00
2018-11-11T15:37:27.877Z,95432.00
2018-11-11T15:39:58.934Z,95431.00
2018-11-11T15:42:30.325Z,95442.00
2018-11-11T15:45:01.353Z,95447.00
2018-11-11T15:47:33.248Z,95449.00
2018-11-11T15:50:05.353Z,95456.00
2018-11-11T15:52:36.325Z,95462.00
2018-11-11T15:55:09.434Z,95459.00
2018-11-11T15:57:40.622Z,95466.00
2018-11-11T16:00:16.370Z,95467.00
2018-11-11T16:02:47.541Z,95467.00
2018-11-11T16:05:19.397Z,95466.00
2018-11-11T16:07:51.495Z,95471.00
2018-11-11T16:10:24.121Z,95471.00
2018-11-11T16:12:56.262Z,95468.00
2018-11-11T16:15:30.649Z,95475.00
2018-11-11T16:18:05.140Z,95472.00
2018-11-11T16:20:36.553Z,95482.00
2018-11-11T16:23:09.492Z,95480.00
2018-11-11T16:25:41.013Z,95479.00
2018-11-11T16:28:12.562Z,95479.00
2018-11-11T16:30:43.884Z,95479.00
2018-11-11T16:33:15.149Z,95481.00
2018-11-11T16:35:46.451Z,95485.00
2018-11-11T16:38:17.523Z,95489.00
2018-11-11T16:40:49.789Z,95489.00
2018-11-11T16:43:20.927Z,95487.00
2018-11-11T16:45:52.257Z,95492.00
2018-11-11T16:48:23.551Z,95507.00
2018-11-11T16:50:54.986Z,95500.00
2018-11-11T16:53:26.123Z,95501.00
2018-11-11T16:55:57.351Z,95495.00
2018-11-11T16:58:28.537Z,95495.00
2018-11-11T17:00:59.818Z,95501.00
2018-11-11T17:03:41.235Z,95506.00
2018-11-11T17:06:12.739Z,95509.00
2018-11-11T17:08:44.001Z,95510.00
2018-11-11T17:11:15.331Z,95502.00
2018-11-11T17:13:46.522Z,95508.00
2018-11-11T17:16:17.718Z,95516.00
2018-11-11T17:18:49.210Z,95516.00
2018-11-11T17:21:20.950Z,95516.00
2018-11-11T17:23:52.083Z,95518.00
2018-11-11T17:26:23.475Z,95521.00
2018-11-11T17:28:55.205Z,95522.00
2018-11-11T17:31:26.962Z,95527.00
2018-11-11T17:33:58.805Z,95533.00
2018-11-11T17:36:30.550Z,95533.00
2018-11-11T17:39:02.670Z,95543.00
2018-11-11T17:41:34.930Z,95540.00
2018-11-11T17:44:06.974Z,95546.00
2018-11-11T17:46:38.419Z,95549.00
2018-11-11T17:49:09.876Z,95561.00
2018-11-11T17:51:41.177Z,95554.00
2018-11-11T17:54:12.726Z,95557.00
2018-11-11T17:56:44.281Z,95564.00
2018-11-11T17:59:16.035Z,95565.00
2018-11-11T18:01:47.837Z,95572.00
2018-11-11T18:04:19.473Z,95577.00
2018-11-11T18:06:52.045Z,95582.00
2018-11-11T18:09:24.114Z,95578.00
2018-11-11T18:11:56.111Z,95584.00
2018-11-11T18:14:27.815Z,95583.00
2018-11-11T18:16:59.714Z,95578.00
2018-11-11T18:19:31.478Z,95585.00
2018-11-11T18:22:04.575Z,95591.00
2018-11-11T18:24:36.024Z,95596.00
2018-11-11T18:27:07.351Z,95591.00
2018-11-11T18:29:38.642Z,95591.00
2018-11-11T18:32:11.270Z,95594.00
2018-11-11T18:34:42.767Z,95604.00
2018-11-11T18:37:14.327Z,95608.00
2018-11-11T18:39:46.282Z,95605.00
2018-11-11T18:42:17.671Z,95611.00
2018-11-11T18:44:50.440Z,95607.00
2018-11-11T18:47:22.924Z,95613.00
2018-11-11T18:49:54.743Z,95607.00
2018-11-11T18:52:26.177Z,95610.00
2018-11-11T18:54:57.507Z,95615.00
2018-11-11T18:57:28.862Z,95615.00
2018-11-11T19:00:00.537Z,95615.00
2018-11-11T19:02:32.011Z,95627.00
2018-11-11T19:05:04.825Z,95630.00
2018-11-11T19:07:36.181Z,95636.00
2018-11-11T19:10:10.389Z,95639.00
2018-11-11T19:12:42.952Z,95652.00
2018-11-11T19:15:16.040Z,95654.00
2018-11-11T19:17:48.449Z,95658.00
2018-11-11T19:20:21.838Z,95656.00
2018-11-11T19:22:52.831Z,95660.00
2018-11-11T19:25:26.522Z,95659.00
2018-11-11T19:27:58.590Z,95656.00
2018-11-11T19:30:30.653Z,95660.00
2018-11-11T19:33:01.850Z,95658.00
2018-11-11T19:35:39.571Z,95659.00
2018-11-11T19:38:10.816Z,95657.00
2018-11-11T19:40:42.239Z,95652.00
2018-11-11T19:43:13.326Z,95662.00
2018-11-11T19:45:44.523Z,95663.00
2018-11-11T19:48:15.783Z,95662.00
2018-11-11T19:50:46.974Z,95666.00
2018-11-11T19:53:18.955Z,95663.00
2018-11-11T19:55:50.183Z,95660.00
2018-11-11T19:58:21.289Z,95668.00
2018-11-11T20:00:52.435Z,95665.00
2018-11-11T20:03:23.893Z,95667.00
2018-11-11T20:05:55.020Z,95668.00
2018-11-11T20:08:27.177Z,95667.00
2018-11-11T20:10:58.667Z,95676.00
2018-11-11T20:13:30.182Z,95672.00
2018-11-11T20:16:01.623Z,95675.00
2018-11-11T20:18:33.017Z,95678.00
2018-11-11T20:21:04.777Z,95684.00
2018-11-11T20:23:36.483Z,95684.00
2018-11-11T20:26:07.691Z,95683.00
2018-11-11T20:28:38.656Z,95681.00
2018-11-11T20:31:09.623Z,95682.00
2018-11-11T20:33:40.588Z,95683.00
2018-11-11T20:36:11.530Z,95679.00
2018-11-11T20:38:42.885Z,95683.00
2018-11-11T20:41:13.847Z,95685.00
2018-11-11T20:43:44.802Z,95689.00
2018-11-11T20:46:16.153Z,95686.00
2018-11-11T20:48:47.967Z,95690.00
2018-11-11T20:51:19.624Z,95693.00
2018-11-11T20:53:50.774Z,95699.00
2018-11-11T20:56:22.043Z,95694.00
2018-11-11T20:58:53.394Z,95696.00
2018-11-11T21:01:24.664Z,95696.00
2018-11-11T21:03:55.834Z,95696.00
2018-11-11T21:06:27.116Z,95700.00
2018-11-11T21:08:58.345Z,95700.00
2018-11-11T21:11:29.829Z,95703.00
2018-11-11T21:14:01.066Z,95703.00
2018-11-11T21:16:32.194Z,95711.00
2018-11-11T21:19:03.510Z,95712.00
2018-11-11T21:21:34.546Z,95720.00
2018-11-11T21:24:05.573Z,95727.00
2018-11-11T21:26:36.880Z,95729.00
2018-11-11T21:29:08.906Z,95732.00
2018-11-11T21:31:39.936Z,95733.00
2018-11-11T21:34:11.030Z,95740.00
2018-11-11T21:36:42.188Z,95747.00
2018-11-11T21:39:14.366Z,95748.00
2018-11-11T21:41:45.404Z,95751.00
2018-11-11T21:44:16.708Z,95751.00
2018-11-11T21:46:48.078Z,95754.00
2018-11-11T21:49:19.076Z,95747.00
2018-11-11T21:51:50.741Z,95746.00
2018-11-11T21:54:22.188Z,95745.00
2018-11-11T21:56:53.817Z,95750.00
2018-11-11T21:59:26.201Z,95751.00
2018-11-11T22:01:57.257Z,95757.00
2018-11-11T22:04:28.467Z,95758.00
2018-11-11T22:07:02.087Z,95757.00
2018-11-11T22:09:33.239Z,95752.00
2018-11-11T22:12:04.340Z,95758.00
2018-11-11T22:14:35.580Z,95761.00
2018-11-11T22:17:06.808Z,95767.00
2018-11-11T22:19:37.745Z,95767.00
2018-11-11T22:22:08.909Z,95766.00
2018-11-11T22:24:40.033Z,95773.00
2018-11-11T22:27:11.125Z,95772.00
2018-11-11T22:29:42.323Z,95770.00
2018-11-11T22:32:13.379Z,95769.00
2018-11-11T22:34:44.869Z,95766.00
2018-11-11T22:37:16.113Z,95770.00
2018-11-11T22:39:47.162Z,95765.00
2018-11-11T22:42:18.419Z,95762.00
2018-11-11T22:44:49.417Z,95762.00
2018-11-11T22:47:20.369Z,95763.00
2018-11-11T22:49:51.356Z,95765.00
2018-11-11T22:52:22.334Z,95764.00
2018-11-11T22:54:53.659Z,95764.00
2018-11-11T22:57:24.478Z,95763.00
2018-11-11T22:59:55.446Z,95763.00
2018-11-11T23:02:26.258Z,95767.00
2018-11-11T23:04:57.680Z,95765.00
2018-11-11T23:07:28.685Z,95766.00
2018-11-11T23:09:59.892Z,95767.00
2018-11-11T23:12:30.665Z,95772.00
2018-11-11T23:15:01.532Z,95775.00
2018-11-11T23:17:32.787Z,95770.00
2018-11-11T23:20:03.841Z,95775.00
2018-11-11T23:22:34.975Z,95773.00
2018-11-11T23:25:06.730Z,95772.00
2018-11-11T23:27:38.136Z,95780.00
2018-11-11T23:30:16.923Z,95777.00
2018-11-11T23:32:48.262Z,95777.00
2018-11-11T23:35:19.614Z,95775.00
2018-11-11T23:37:50.479Z,95772.00
2018-11-11T23:40:21.491Z,95769.00
2018-11-11T23:42:52.786Z,95770.00
2018-11-11T23:45:24.011Z,95770.00
2018-11-11T23:47:55.006Z,95769.00
2018-11-11T23:50:26.117Z,95766.00
2018-11-11T23:52:57.339Z,95772.00
2018-11-11T23:55:28.285Z,95775.00
2018-11-11T23:57:59.123Z,95771.00
